sensor_id;sensor_type;location;lat;lon;timestamp;pressure;altitude;pressure_sealevel;temperature;humidity
74524;BME280;63074;44.696;10.358;2023-02-02T00:01:54;100367.75;;;3.90;100.00
74524;BME280;63074;44.696;10.358;2023-02-02T00:04:27;100368.22;;;3.94;100.00
74524;BME280;63074;44.696;10.358;2023-02-02T00:06:54;100361.81;;;3.88;100.00
74524;BME280;63074;44.696;10.358;2023-02-02T00:09:27;100360.88;;;3.81;100.00
74524;BME280;63074;44.696;10.358;2023-02-02T00:11:59;100373.34;;;3.95;100.00
74524;BME280;63074;44.696;10.358;2023-02-02T00:14:27;100370.50;;;3.97;100.00
74524;BME280;63074;44.696;10.358;2023-02-02T00:16:57;100363.56;;;3.66;100.00
74524;BME280;63074;44.696;10.358;2023-02-02T00:19:30;100369.59;;;3.90;100.00
74524;BME280;63074;44.696;10.358;2023-02-02T00:21:59;100371.88;;;3.93;100.00
74524;BME280;63074;44.696;10.358;2023-02-02T00:24:25;100371.22;;;4.05;100.00
74524;BME280;63074;44.696;10.358;2023-02-02T00:26:58;100370.78;;;4.02;100.00
74524;BME280;63074;44.696;10.358;2023-02-02T00:29:27;100373.16;;;4.12;100.00
74524;BME280;63074;44.696;10.358;2023-02-02T00:32:01;100368.38;;;4.07;100.00
74524;BME280;63074;44.696;10.358;2023-02-02T00:34:29;100369.50;;;3.98;100.00
74524;BME280;63074;44.696;10.358;2023-02-02T00:36:56;100366.16;;;4.11;100.00
74524;BME280;63074;44.696;10.358;2023-02-02T00:39:28;100370.13;;;4.15;100.00
74524;BME280;63074;44.696;10.358;2023-02-02T00:41:56;100364.97;;;4.28;100.00
74524;BME280;63074;44.696;10.358;2023-02-02T00:44:33;100367.38;;;4.08;100.00
74524;BME280;63074;44.696;10.358;2023-02-02T00:47:21;100362.59;;;4.18;100.00
74524;BME280;63074;44.696;10.358;2023-02-02T00:49:55;100355.34;;;4.12;100.00
74524;BME280;63074;44.696;10.358;2023-02-02T00:52:22;100359.84;;;4.12;100.00
74524;BME280;63074;44.696;10.358;2023-02-02T00:54:53;100362.41;;;4.05;100.00
74524;BME280;63074;44.696;10.358;2023-02-02T00:57:25;100361.03;;;4.09;100.00
74524;BME280;63074;44.696;10.358;2023-02-02T00:59:55;100363.81;;;4.37;100.00
74524;BME280;63074;44.696;10.358;2023-02-02T01:02:34;100359.09;;;4.32;100.00
74524;BME280;63074;44.696;10.358;2023-02-02T01:05:05;100376.44;;;4.28;100.00
74524;BME280;63074;44.696;10.358;2023-02-02T01:07:43;100376.16;;;4.23;100.00
74524;BME280;63074;44.696;10.358;2023-02-02T01:10:16;100391.63;;;4.34;100.00
74524;BME280;63074;44.696;10.358;2023-02-02T01:12:47;100389.75;;;3.84;100.00
74524;BME280;63074;44.696;10.358;2023-02-02T01:15:37;100402.59;;;3.66;100.00
74524;BME280;63074;44.696;10.358;2023-02-02T01:18:10;100405.84;;;3.38;100.00
74524;BME280;63074;44.696;10.358;2023-02-02T01:20:43;100402.63;;;3.28;100.00
74524;BME280;63074;44.696;10.358;2023-02-02T01:23:21;100398.13;;;2.60;100.00
74524;BME280;63074;44.696;10.358;2023-02-02T01:26:08;100409.25;;;3.10;100.00
74524;BME280;63074;44.696;10.358;2023-02-02T01:28:35;100407.75;;;3.30;100.00
74524;BME280;63074;44.696;10.358;2023-02-02T01:31:17;100405.19;;;3.36;100.00
74524;BME280;63074;44.696;10.358;2023-02-02T01:33:51;100407.38;;;3.33;100.00
74524;BME280;63074;44.696;10.358;2023-02-02T01:36:22;100404.84;;;3.39;100.00
74524;BME280;63074;44.696;10.358;2023-02-02T01:38:55;100407.41;;;3.48;100.00
74524;BME280;63074;44.696;10.358;2023-02-02T01:41:25;100409.34;;;3.54;100.00
74524;BME280;63074;44.696;10.358;2023-02-02T01:47:08;100414.06;;;3.29;100.00
74524;BME280;63074;44.696;10.358;2023-02-02T01:49:40;100419.84;;;3.32;100.00
74524;BME280;63074;44.696;10.358;2023-02-02T01:52:10;100413.03;;;3.15;100.00
74524;BME280;63074;44.696;10.358;2023-02-02T01:54:59;100410.03;;;3.33;100.00
74524;BME280;63074;44.696;10.358;2023-02-02T02:00:19;100410.22;;;3.31;100.00
74524;BME280;63074;44.696;10.358;2023-02-02T02:03:16;100404.69;;;3.56;100.00
74524;BME280;63074;44.696;10.358;2023-02-02T02:05:55;100400.97;;;3.27;100.00
74524;BME280;63074;44.696;10.358;2023-02-02T02:08:54;100401.25;;;3.32;100.00
74524;BME280;63074;44.696;10.358;2023-02-02T02:11:24;100400.81;;;3.44;100.00
74524;BME280;63074;44.696;10.358;2023-02-02T02:13:58;100393.69;;;3.21;100.00
74524;BME280;63074;44.696;10.358;2023-02-02T02:26:55;100374.03;;;2.70;100.00
74524;BME280;63074;44.696;10.358;2023-02-02T02:30:04;100370.06;;;3.12;100.00
74524;BME280;63074;44.696;10.358;2023-02-02T02:38:21;100354.56;;;3.67;100.00
74524;BME280;63074;44.696;10.358;2023-02-02T02:40:54;100363.16;;;3.84;100.00
74524;BME280;63074;44.696;10.358;2023-02-02T02:43:34;100354.84;;;4.02;100.00
74524;BME280;63074;44.696;10.358;2023-02-02T02:46:04;100358.78;;;3.91;100.00
74524;BME280;63074;44.696;10.358;2023-02-02T02:48:30;100364.84;;;3.70;100.00
74524;BME280;63074;44.696;10.358;2023-02-02T02:51:08;100352.63;;;3.61;100.00
74524;BME280;63074;44.696;10.358;2023-02-02T02:53:55;100358.13;;;3.45;100.00
74524;BME280;63074;44.696;10.358;2023-02-02T02:56:32;100364.34;;;3.52;100.00
74524;BME280;63074;44.696;10.358;2023-02-02T03:10:57;100369.13;;;3.86;100.00
74524;BME280;63074;44.696;10.358;2023-02-02T03:13:32;100371.25;;;3.91;100.00
74524;BME280;63074;44.696;10.358;2023-02-02T03:16:06;100369.16;;;3.71;100.00
74524;BME280;63074;44.696;10.358;2023-02-02T03:18:37;100380.28;;;3.52;100.00
74524;BME280;63074;44.696;10.358;2023-02-02T03:21:05;100377.53;;;3.31;100.00
74524;BME280;63074;44.696;10.358;2023-02-02T03:23:36;100383.25;;;3.20;100.00
74524;BME280;63074;44.696;10.358;2023-02-02T03:26:06;100391.88;;;3.22;100.00
74524;BME280;63074;44.696;10.358;2023-02-02T03:28:37;100387.38;;;3.22;100.00
74524;BME280;63074;44.696;10.358;2023-02-02T03:31:05;100386.25;;;3.39;100.00
74524;BME280;63074;44.696;10.358;2023-02-02T03:33:36;100393.41;;;3.54;100.00
74524;BME280;63074;44.696;10.358;2023-02-02T03:36:04;100388.38;;;3.59;100.00
74524;BME280;63074;44.696;10.358;2023-02-02T03:38:41;100394.69;;;3.43;100.00
74524;BME280;63074;44.696;10.358;2023-02-02T03:41:08;100400.25;;;3.48;100.00
74524;BME280;63074;44.696;10.358;2023-02-02T03:43:44;100406.97;;;3.44;100.00
74524;BME280;63074;44.696;10.358;2023-02-02T03:46:17;100410.63;;;3.43;100.00
74524;BME280;63074;44.696;10.358;2023-02-02T03:48:43;100393.22;;;3.41;100.00
74524;BME280;63074;44.696;10.358;2023-02-02T03:51:14;100409.34;;;3.39;100.00
74524;BME280;63074;44.696;10.358;2023-02-02T03:53:48;100410.47;;;3.59;100.00
74524;BME280;63074;44.696;10.358;2023-02-02T03:56:15;100408.91;;;3.65;100.00
74524;BME280;63074;44.696;10.358;2023-02-02T03:58:44;100426.22;;;3.61;100.00
74524;BME280;63074;44.696;10.358;2023-02-02T04:01:13;100430.72;;;3.23;100.00
74524;BME280;63074;44.696;10.358;2023-02-02T04:03:45;100425.03;;;3.26;100.00
74524;BME280;63074;44.696;10.358;2023-02-02T04:06:13;100432.94;;;3.34;100.00
74524;BME280;63074;44.696;10.358;2023-02-02T04:08:45;100433.00;;;3.26;100.00
74524;BME280;63074;44.696;10.358;2023-02-02T04:11:18;100435.31;;;3.29;100.00
74524;BME280;63074;44.696;10.358;2023-02-02T04:13:46;100447.47;;;3.23;100.00
74524;BME280;63074;44.696;10.358;2023-02-02T04:16:14;100454.56;;;3.31;100.00
74524;BME280;63074;44.696;10.358;2023-02-02T04:18:42;100456.69;;;3.13;100.00
74524;BME280;63074;44.696;10.358;2023-02-02T04:21:10;100461.94;;;3.21;100.00
74524;BME280;63074;44.696;10.358;2023-02-02T04:23:49;100452.78;;;3.23;100.00
74524;BME280;63074;44.696;10.358;2023-02-02T04:26:17;100451.78;;;3.24;100.00
74524;BME280;63074;44.696;10.358;2023-02-02T04:28:43;100449.59;;;3.28;100.00
74524;BME280;63074;44.696;10.358;2023-02-02T04:31:16;100445.44;;;3.11;100.00
74524;BME280;63074;44.696;10.358;2023-02-02T04:33:43;100440.03;;;3.19;100.00
74524;BME280;63074;44.696;10.358;2023-02-02T04:36:09;100445.00;;;2.76;100.00
74524;BME280;63074;44.696;10.358;2023-02-02T04:38:38;100438.53;;;2.70;100.00
74524;BME280;63074;44.696;10.358;2023-02-02T04:41:08;100442.72;;;2.65;100.00
74524;BME280;63074;44.696;10.358;2023-02-02T04:43:38;100446.81;;;2.76;100.00
74524;BME280;63074;44.696;10.358;2023-02-02T04:46:05;100442.25;;;2.30;100.00
74524;BME280;63074;44.696;10.358;2023-02-02T04:48:33;100444.94;;;2.22;100.00
74524;BME280;63074;44.696;10.358;2023-02-02T04:51:02;100429.91;;;2.46;100.00
74524;BME280;63074;44.696;10.358;2023-02-02T04:53:29;100439.38;;;2.01;100.00
74524;BME280;63074;44.696;10.358;2023-02-02T04:56:09;100436.41;;;1.96;100.00
74524;BME280;63074;44.696;10.358;2023-02-02T04:58:47;100431.13;;;1.88;100.00
74524;BME280;63074;44.696;10.358;2023-02-02T05:01:18;100427.03;;;2.24;100.00
74524;BME280;63074;44.696;10.358;2023-02-02T05:03:53;100426.91;;;2.49;100.00
74524;BME280;63074;44.696;10.358;2023-02-02T05:06:26;100426.91;;;2.49;100.00
74524;BME280;63074;44.696;10.358;2023-02-02T05:08:56;100432.00;;;2.58;100.00
74524;BME280;63074;44.696;10.358;2023-02-02T05:11:23;100432.84;;;2.59;100.00
74524;BME280;63074;44.696;10.358;2023-02-02T05:13:53;100432.25;;;2.71;100.00
74524;BME280;63074;44.696;10.358;2023-02-02T05:16:23;100438.19;;;2.43;100.00
74524;BME280;63074;44.696;10.358;2023-02-02T05:18:51;100449.72;;;2.27;100.00
74524;BME280;63074;44.696;10.358;2023-02-02T05:21:19;100450.19;;;1.75;100.00
74524;BME280;63074;44.696;10.358;2023-02-02T05:23:45;100459.28;;;1.81;100.00
74524;BME280;63074;44.696;10.358;2023-02-02T05:26:26;100458.59;;;1.95;100.00
74524;BME280;63074;44.696;10.358;2023-02-02T05:28:55;100455.56;;;2.14;100.00
74524;BME280;63074;44.696;10.358;2023-02-02T05:31:29;100446.53;;;2.31;100.00
74524;BME280;63074;44.696;10.358;2023-02-02T05:33:58;100449.38;;;2.30;100.00
74524;BME280;63074;44.696;10.358;2023-02-02T05:36:28;100445.78;;;2.54;100.00
74524;BME280;63074;44.696;10.358;2023-02-02T05:39:04;100446.44;;;2.56;100.00
74524;BME280;63074;44.696;10.358;2023-02-02T05:41:34;100450.94;;;2.08;100.00
74524;BME280;63074;44.696;10.358;2023-02-02T05:44:07;100450.34;;;1.82;100.00
74524;BME280;63074;44.696;10.358;2023-02-02T05:46:34;100451.16;;;1.82;100.00
74524;BME280;63074;44.696;10.358;2023-02-02T05:49:06;100463.97;;;1.54;100.00
74524;BME280;63074;44.696;10.358;2023-02-02T05:51:48;100450.72;;;1.46;100.00
74524;BME280;63074;44.696;10.358;2023-02-02T05:54:15;100461.66;;;1.51;100.00
74524;BME280;63074;44.696;10.358;2023-02-02T05:56:46;100469.22;;;1.87;100.00
74524;BME280;63074;44.696;10.358;2023-02-02T05:59:14;100470.88;;;1.80;100.00
74524;BME280;63074;44.696;10.358;2023-02-02T06:01:44;100471.53;;;1.82;100.00
74524;BME280;63074;44.696;10.358;2023-02-02T06:04:12;100474.00;;;1.99;100.00
74524;BME280;63074;44.696;10.358;2023-02-02T06:06:41;100469.66;;;2.07;100.00
74524;BME280;63074;44.696;10.358;2023-02-02T06:09:13;100474.63;;;2.10;100.00
74524;BME280;63074;44.696;10.358;2023-02-02T06:11:39;100474.91;;;2.23;100.00
74524;BME280;63074;44.696;10.358;2023-02-02T06:14:07;100468.94;;;2.29;100.00
74524;BME280;63074;44.696;10.358;2023-02-02T06:16:34;100465.47;;;2.28;100.00
74524;BME280;63074;44.696;10.358;2023-02-02T06:19:00;100476.44;;;2.56;100.00
74524;BME280;63074;44.696;10.358;2023-02-02T06:21:27;100476.09;;;2.20;100.00
74524;BME280;63074;44.696;10.358;2023-02-02T06:23:57;100488.75;;;2.02;100.00
74524;BME280;63074;44.696;10.358;2023-02-02T06:26:25;100481.97;;;1.99;100.00
74524;BME280;63074;44.696;10.358;2023-02-02T06:28:53;100478.44;;;2.54;100.00
74524;BME280;63074;44.696;10.358;2023-02-02T06:31:22;100504.03;;;2.39;100.00
74524;BME280;63074;44.696;10.358;2023-02-02T06:33:56;100506.19;;;2.35;100.00
74524;BME280;63074;44.696;10.358;2023-02-02T06:36:25;100494.31;;;2.23;100.00
74524;BME280;63074;44.696;10.358;2023-02-02T06:39:03;100485.22;;;2.10;100.00
74524;BME280;63074;44.696;10.358;2023-02-02T06:41:55;100493.88;;;2.51;100.00
74524;BME280;63074;44.696;10.358;2023-02-02T06:44:44;100489.63;;;2.33;100.00
74524;BME280;63074;44.696;10.358;2023-02-02T06:47:38;100498.69;;;2.00;100.00
74524;BME280;63074;44.696;10.358;2023-02-02T06:50:20;100498.06;;;1.65;100.00
74524;BME280;63074;44.696;10.358;2023-02-02T06:52:59;100502.69;;;1.88;100.00
74524;BME280;63074;44.696;10.358;2023-02-02T06:55:37;100511.94;;;1.84;100.00
74524;BME280;63074;44.696;10.358;2023-02-02T06:58:10;100505.53;;;1.62;100.00
74524;BME280;63074;44.696;10.358;2023-02-02T07:00:39;100502.38;;;1.50;100.00
74524;BME280;63074;44.696;10.358;2023-02-02T07:03:16;100508.09;;;2.02;100.00
74524;BME280;63074;44.696;10.358;2023-02-02T07:05:44;100501.59;;;2.29;100.00
74524;BME280;63074;44.696;10.358;2023-02-02T07:08:13;100506.69;;;2.39;100.00
74524;BME280;63074;44.696;10.358;2023-02-02T07:10:53;100500.50;;;2.86;99.97
74524;BME280;63074;44.696;10.358;2023-02-02T07:13:23;100504.78;;;3.18;96.33
74524;BME280;63074;44.696;10.358;2023-02-02T07:15:50;100505.16;;;3.15;94.45
74524;BME280;63074;44.696;10.358;2023-02-02T07:18:20;100505.59;;;3.64;89.79
74524;BME280;63074;44.696;10.358;2023-02-02T07:20:58;100506.19;;;4.77;79.05
74524;BME280;63074;44.696;10.358;2023-02-02T07:23:39;100493.13;;;5.18;73.96
74524;BME280;63074;44.696;10.358;2023-02-02T07:26:19;100496.75;;;5.81;68.17
74524;BME280;63074;44.696;10.358;2023-02-02T07:28:53;100488.06;;;5.94;67.14
74524;BME280;63074;44.696;10.358;2023-02-02T07:31:28;100492.81;;;5.98;65.98
74524;BME280;63074;44.696;10.358;2023-02-02T07:34:16;100486.13;;;5.88;66.95
74524;BME280;63074;44.696;10.358;2023-02-02T07:36:54;100483.59;;;5.73;67.98
74524;BME280;63074;44.696;10.358;2023-02-02T07:39:24;100485.69;;;5.84;67.96
74524;BME280;63074;44.696;10.358;2023-02-02T07:41:56;100486.72;;;6.04;67.56
74524;BME280;63074;44.696;10.358;2023-02-02T07:44:44;100491.34;;;6.24;66.73
74524;BME280;63074;44.696;10.358;2023-02-02T07:47:18;100486.09;;;6.43;66.20
74524;BME280;63074;44.696;10.358;2023-02-02T07:49:48;100476.63;;;6.41;66.96
74524;BME280;63074;44.696;10.358;2023-02-02T07:52:34;100469.06;;;6.44;67.71
74524;BME280;63074;44.696;10.358;2023-02-02T07:55:17;100477.31;;;6.50;69.05
74524;BME280;63074;44.696;10.358;2023-02-02T07:57:45;100472.44;;;6.60;68.75
74524;BME280;63074;44.696;10.358;2023-02-02T08:00:23;100473.84;;;6.56;70.21
74524;BME280;63074;44.696;10.358;2023-02-02T08:02:52;100471.88;;;6.77;69.96
74524;BME280;63074;44.696;10.358;2023-02-02T08:05:20;100474.41;;;6.92;69.86
74524;BME280;63074;44.696;10.358;2023-02-02T08:07:56;100483.84;;;6.95;70.51
74524;BME280;63074;44.696;10.358;2023-02-02T08:10:28;100479.09;;;6.84;72.40
74524;BME280;63074;44.696;10.358;2023-02-02T08:13:04;100479.13;;;6.90;73.18
74524;BME280;63074;44.696;10.358;2023-02-02T08:15:34;100484.09;;;7.06;72.45
74524;BME280;63074;44.696;10.358;2023-02-02T08:18:32;100488.66;;;7.52;69.68
74524;BME280;63074;44.696;10.358;2023-02-02T08:21:10;100487.69;;;7.79;67.01
74524;BME280;63074;44.696;10.358;2023-02-02T08:23:46;100493.81;;;8.00;63.74
74524;BME280;63074;44.696;10.358;2023-02-02T08:26:38;100490.91;;;8.21;61.78
74524;BME280;63074;44.696;10.358;2023-02-02T08:29:23;100496.84;;;8.50;59.50
74524;BME280;63074;44.696;10.358;2023-02-02T08:31:56;100501.06;;;8.77;58.56
74524;BME280;63074;44.696;10.358;2023-02-02T08:34:25;100500.25;;;8.70;58.56
74524;BME280;63074;44.696;10.358;2023-02-02T08:37:17;100505.44;;;8.65;58.98
74524;BME280;63074;44.696;10.358;2023-02-02T08:39:53;100512.50;;;8.97;57.82
74524;BME280;63074;44.696;10.358;2023-02-02T08:42:39;100511.16;;;9.20;56.78
74524;BME280;63074;44.696;10.358;2023-02-02T08:45:17;100507.59;;;9.26;58.39
74524;BME280;63074;44.696;10.358;2023-02-02T08:48:11;100517.38;;;9.76;56.05
74524;BME280;63074;44.696;10.358;2023-02-02T08:50:41;100511.53;;;9.55;56.32
74524;BME280;63074;44.696;10.358;2023-02-02T08:53:10;100514.50;;;9.46;56.15
74524;BME280;63074;44.696;10.358;2023-02-02T08:55:38;100520.88;;;9.77;55.65
74524;BME280;63074;44.696;10.358;2023-02-02T08:58:35;100507.69;;;9.75;54.69
74524;BME280;63074;44.696;10.358;2023-02-02T09:01:26;100510.31;;;10.07;52.89
74524;BME280;63074;44.696;10.358;2023-02-02T09:04:07;100521.47;;;10.29;50.69
74524;BME280;63074;44.696;10.358;2023-02-02T09:06:38;100534.63;;;9.87;53.68
74524;BME280;63074;44.696;10.358;2023-02-02T09:09:16;100533.53;;;10.20;50.96
74524;BME280;63074;44.696;10.358;2023-02-02T09:11:45;100522.41;;;10.59;49.62
74524;BME280;63074;44.696;10.358;2023-02-02T09:14:12;100522.16;;;10.18;50.65
74524;BME280;63074;44.696;10.358;2023-02-02T09:16:39;100528.31;;;10.68;49.49
74524;BME280;63074;44.696;10.358;2023-02-02T09:19:06;100533.75;;;10.61;48.70
74524;BME280;63074;44.696;10.358;2023-02-02T09:21:33;100538.16;;;10.37;50.19
74524;BME280;63074;44.696;10.358;2023-02-02T09:24:09;100544.88;;;10.65;48.75
74524;BME280;63074;44.696;10.358;2023-02-02T09:26:35;100539.19;;;10.55;48.69
74524;BME280;63074;44.696;10.358;2023-02-02T09:29:05;100537.31;;;10.73;47.87
74524;BME280;63074;44.696;10.358;2023-02-02T09:31:36;100543.91;;;10.59;49.61
74524;BME280;63074;44.696;10.358;2023-02-02T09:34:04;100553.97;;;10.82;47.71
74524;BME280;63074;44.696;10.358;2023-02-02T09:36:31;100562.34;;;10.92;48.89
74524;BME280;63074;44.696;10.358;2023-02-02T09:38:57;100567.25;;;10.77;49.88
74524;BME280;63074;44.696;10.358;2023-02-02T09:44:23;100576.22;;;11.07;48.18
74524;BME280;63074;44.696;10.358;2023-02-02T09:47:02;100570.03;;;11.37;47.56
74524;BME280;63074;44.696;10.358;2023-02-02T09:50:14;100578.41;;;11.29;47.93
74524;BME280;63074;44.696;10.358;2023-02-02T09:52:33;100579.97;;;11.36;46.56
74524;BME280;63074;44.696;10.358;2023-02-02T09:55:10;100579.91;;;11.43;46.83
74524;BME280;63074;44.696;10.358;2023-02-02T09:58:09;100574.97;;;11.40;47.01
74524;BME280;63074;44.696;10.358;2023-02-02T10:03:41;100568.41;;;11.36;47.17
74524;BME280;63074;44.696;10.358;2023-02-02T10:06:34;100568.69;;;11.46;47.01
74524;BME280;63074;44.696;10.358;2023-02-02T10:12:05;100577.06;;;11.68;45.00
74524;BME280;63074;44.696;10.358;2023-02-02T10:14:45;100572.34;;;11.81;45.75
74524;BME280;63074;44.696;10.358;2023-02-02T10:19:58;100576.47;;;12.07;43.84
74524;BME280;63074;44.696;10.358;2023-02-02T10:22:29;100580.22;;;12.06;43.39
74524;BME280;63074;44.696;10.358;2023-02-02T10:24:58;100575.50;;;11.90;44.25
74524;BME280;63074;44.696;10.358;2023-02-02T10:27:37;100583.47;;;11.97;43.50
74524;BME280;63074;44.696;10.358;2023-02-02T10:30:19;100585.13;;;12.21;44.77
74524;BME280;63074;44.696;10.358;2023-02-02T10:33:09;100578.81;;;12.04;43.44
74524;BME280;63074;44.696;10.358;2023-02-02T10:44:18;100557.78;;;10.38;86.17
74524;BME280;63074;44.696;10.358;2023-02-02T10:46:53;100565.75;;;10.44;89.90
74524;BME280;63074;44.696;10.358;2023-02-02T10:52:17;100561.78;;;10.47;88.14
74524;BME280;63074;44.696;10.358;2023-02-02T10:57:48;100541.72;;;10.86;83.11
74524;BME280;63074;44.696;10.358;2023-02-02T11:03:12;100538.47;;;11.14;69.08
74524;BME280;63074;44.696;10.358;2023-02-02T11:05:39;100528.19;;;11.82;56.48
74524;BME280;63074;44.696;10.358;2023-02-02T11:11:38;100527.13;;;12.65;45.70
74524;BME280;63074;44.696;10.358;2023-02-02T11:16:41;100533.66;;;12.81;41.75
74524;BME280;63074;44.696;10.358;2023-02-02T11:27:04;100529.00;;;13.45;40.19
74524;BME280;63074;44.696;10.358;2023-02-02T11:37:54;100527.59;;;13.59;43.11
74524;BME280;63074;44.696;10.358;2023-02-02T11:43:04;100521.25;;;13.65;43.15
74524;BME280;63074;44.696;10.358;2023-02-02T11:45:39;100517.56;;;13.88;41.90
74524;BME280;63074;44.696;10.358;2023-02-02T11:50:37;100494.94;;;14.28;38.89
74524;BME280;63074;44.696;10.358;2023-02-02T11:53:05;100502.63;;;14.36;36.50
74524;BME280;63074;44.696;10.358;2023-02-02T11:55:32;100497.50;;;14.56;39.81
74524;BME280;63074;44.696;10.358;2023-02-02T11:58:19;100479.56;;;14.50;38.44
74524;BME280;63074;44.696;10.358;2023-02-02T12:00:52;100482.31;;;14.33;36.66
74524;BME280;63074;44.696;10.358;2023-02-02T12:03:38;100477.56;;;14.84;37.42
74524;BME280;63074;44.696;10.358;2023-02-02T12:06:22;100469.53;;;14.67;35.92
74524;BME280;63074;44.696;10.358;2023-02-02T12:08:49;100466.25;;;14.87;36.67
74524;BME280;63074;44.696;10.358;2023-02-02T12:25:44;100430.41;;;16.45;33.45
74524;BME280;63074;44.696;10.358;2023-02-02T12:27:55;100425.47;;;17.19;32.64
74524;BME280;63074;44.696;10.358;2023-02-02T12:31:03;100431.84;;;23.18;24.71
74524;BME280;63074;44.696;10.358;2023-02-02T12:33:40;100441.56;;;26.00;23.64
74524;BME280;63074;44.696;10.358;2023-02-02T12:36:35;100448.00;;;27.30;21.11
74524;BME280;63074;44.696;10.358;2023-02-02T13:10:23;100441.94;;;31.52;16.34
74524;BME280;63074;44.696;10.358;2023-02-02T13:21:24;100427.69;;;31.53;16.12
74524;BME280;63074;44.696;10.358;2023-02-02T13:23:56;100427.31;;;30.97;16.78
74524;BME280;63074;44.696;10.358;2023-02-02T13:26:36;100420.00;;;31.43;17.25
74524;BME280;63074;44.696;10.358;2023-02-02T13:32:14;100418.03;;;32.32;15.55
74524;BME280;63074;44.696;10.358;2023-02-02T13:51:40;100442.06;;;31.36;16.47
74524;BME280;63074;44.696;10.358;2023-02-02T14:00:15;100440.66;;;31.27;16.66
74524;BME280;63074;44.696;10.358;2023-02-02T14:02:50;100448.31;;;29.84;17.18
74524;BME280;63074;44.696;10.358;2023-02-02T14:05:26;100438.16;;;31.21;16.50
74524;BME280;63074;44.696;10.358;2023-02-02T14:10:35;100450.31;;;30.47;17.06
74524;BME280;63074;44.696;10.358;2023-02-02T14:13:15;100455.59;;;31.03;16.77
74524;BME280;63074;44.696;10.358;2023-02-02T14:16:07;100454.66;;;29.85;16.95
74524;BME280;63074;44.696;10.358;2023-02-02T14:30:21;100451.47;;;26.47;20.14
74524;BME280;63074;44.696;10.358;2023-02-02T14:32:48;100434.84;;;26.27;20.06
74524;BME280;63074;44.696;10.358;2023-02-02T14:37:41;100425.94;;;24.79;22.65
74524;BME280;63074;44.696;10.358;2023-02-02T14:48:34;100419.06;;;20.93;27.83
74524;BME280;63074;44.696;10.358;2023-02-02T14:51:12;100425.56;;;20.97;28.09
74524;BME280;63074;44.696;10.358;2023-02-02T14:53:40;100420.94;;;20.54;29.09
74524;BME280;63074;44.696;10.358;2023-02-02T14:56:14;100418.19;;;20.31;29.94
74524;BME280;63074;44.696;10.358;2023-02-02T15:06:41;100414.69;;;18.50;33.20
74524;BME280;63074;44.696;10.358;2023-02-02T15:17:22;100417.38;;;18.55;34.60
74524;BME280;63074;44.696;10.358;2023-02-02T15:20:07;100414.84;;;18.09;35.19
74524;BME280;63074;44.696;10.358;2023-02-02T15:22:44;100409.47;;;17.28;37.04
74524;BME280;63074;44.696;10.358;2023-02-02T15:40:48;100428.19;;;15.84;41.34
74524;BME280;63074;44.696;10.358;2023-02-02T15:43:15;100437.84;;;15.43;43.03
74524;BME280;63074;44.696;10.358;2023-02-02T15:45:52;100452.03;;;14.97;44.18
74524;BME280;63074;44.696;10.358;2023-02-02T15:48:28;100444.25;;;14.57;45.54
74524;BME280;63074;44.696;10.358;2023-02-02T15:51:14;100451.19;;;14.96;43.93
74524;BME280;63074;44.696;10.358;2023-02-02T15:58:51;100448.38;;;14.04;47.11
74524;BME280;63074;44.696;10.358;2023-02-02T16:01:20;100444.16;;;14.30;45.77
74524;BME280;63074;44.696;10.358;2023-02-02T16:06:21;100440.63;;;14.29;45.88
74524;BME280;63074;44.696;10.358;2023-02-02T16:08:48;100444.50;;;14.16;47.31
74524;BME280;63074;44.696;10.358;2023-02-02T16:11:20;100451.28;;;13.80;48.21
74524;BME280;63074;44.696;10.358;2023-02-02T16:14:04;100451.75;;;13.44;49.32
74524;BME280;63074;44.696;10.358;2023-02-02T16:16:37;100445.53;;;13.43;50.11
74524;BME280;63074;44.696;10.358;2023-02-02T16:19:21;100447.97;;;13.28;50.20
74524;BME280;63074;44.696;10.358;2023-02-02T16:22:01;100449.22;;;13.21;50.59
74524;BME280;63074;44.696;10.358;2023-02-02T16:24:35;100448.88;;;13.05;50.86
74524;BME280;63074;44.696;10.358;2023-02-02T16:27:05;100450.66;;;13.00;51.79
74524;BME280;63074;44.696;10.358;2023-02-02T16:29:33;100456.13;;;12.88;52.18
74524;BME280;63074;44.696;10.358;2023-02-02T16:32:00;100460.00;;;12.80;52.44
74524;BME280;63074;44.696;10.358;2023-02-02T16:34:42;100463.00;;;12.67;52.89
74524;BME280;63074;44.696;10.358;2023-02-02T16:37:16;100456.47;;;12.51;52.98
74524;BME280;63074;44.696;10.358;2023-02-02T16:39:43;100468.53;;;12.49;53.07
74524;BME280;63074;44.696;10.358;2023-02-02T16:42:28;100471.28;;;12.14;56.22
74524;BME280;63074;44.696;10.358;2023-02-02T16:44:56;100470.28;;;11.50;59.14
74524;BME280;63074;44.696;10.358;2023-02-02T16:52:33;100481.50;;;11.05;63.76
74524;BME280;63074;44.696;10.358;2023-02-02T16:55:00;100488.94;;;10.92;65.33
74524;BME280;63074;44.696;10.358;2023-02-02T16:57:29;100494.84;;;10.82;66.36
74524;BME280;63074;44.696;10.358;2023-02-02T16:59:59;100495.31;;;10.61;66.66
74524;BME280;63074;44.696;10.358;2023-02-02T17:02:29;100503.28;;;10.49;67.79
74524;BME280;63074;44.696;10.358;2023-02-02T17:07:50;100512.44;;;10.41;68.67
74524;BME280;63074;44.696;10.358;2023-02-02T17:10:20;100515.88;;;10.30;68.19
74524;BME280;63074;44.696;10.358;2023-02-02T17:12:47;100515.50;;;10.27;67.43
74524;BME280;63074;44.696;10.358;2023-02-02T17:17:43;100522.09;;;10.31;65.52
74524;BME280;63074;44.696;10.358;2023-02-02T17:20:11;100533.06;;;10.47;62.67